sensor_id;sensor_type;location;lat;lon;timestamp;pressure;altitude;pressure_sealevel;temperature
73265;BMP280;61493;51.008;14.088;2022-08-16T00:01:50;97177.56;;;17.96
73265;BMP280;61493;51.008;14.088;2022-08-16T00:04:16;97173.16;;;17.93
73265;BMP280;61493;51.008;14.088;2022-08-16T00:06:42;97177.09;;;17.98
73265;BMP280;61493;51.008;14.088;2022-08-16T00:09:08;97184.16;;;17.95
73265;BMP280;61493;51.008;14.088;2022-08-16T00:11:34;97183.13;;;17.76
73265;BMP280;61493;51.008;14.088;2022-08-16T00:13:59;97183.09;;;17.65
73265;BMP280;61493;51.008;14.088;2022-08-16T00:16:28;97178.16;;;17.52
73265;BMP280;61493;51.008;14.088;2022-08-16T00:18:54;97172.63;;;17.24
73265;BMP280;61493;51.008;14.088;2022-08-16T00:21:19;97167.38;;;17.04
73265;BMP280;61493;51.008;14.088;2022-08-16T00:23:45;97164.31;;;16.85
73265;BMP280;61493;51.008;14.088;2022-08-16T00:26:10;97161.94;;;16.98
73265;BMP280;61493;51.008;14.088;2022-08-16T00:28:36;97171.00;;;16.95
73265;BMP280;61493;51.008;14.088;2022-08-16T00:31:01;97159.03;;;16.96
73265;BMP280;61493;51.008;14.088;2022-08-16T00:33:27;97168.59;;;17.03
73265;BMP280;61493;51.008;14.088;2022-08-16T00:35:53;97169.69;;;17.22
73265;BMP280;61493;51.008;14.088;2022-08-16T00:38:18;97171.63;;;17.21
73265;BMP280;61493;51.008;14.088;2022-08-16T00:40:47;97174.50;;;17.07
73265;BMP280;61493;51.008;14.088;2022-08-16T00:43:20;97171.09;;;17.12
73265;BMP280;61493;51.008;14.088;2022-08-16T00:48:19;97187.53;;;16.88
73265;BMP280;61493;51.008;14.088;2022-08-16T00:50:44;97182.06;;;16.71
73265;BMP280;61493;51.008;14.088;2022-08-16T00:53:12;97186.03;;;16.81
73265;BMP280;61493;51.008;14.088;2022-08-16T00:55:42;97186.78;;;16.87
73265;BMP280;61493;51.008;14.088;2022-08-16T00:58:09;97187.03;;;16.84
73265;BMP280;61493;51.008;14.088;2022-08-16T01:00:35;97188.78;;;16.93
73265;BMP280;61493;51.008;14.088;2022-08-16T01:03:05;97186.34;;;16.89
73265;BMP280;61493;51.008;14.088;2022-08-16T01:05:33;97179.91;;;17.12
73265;BMP280;61493;51.008;14.088;2022-08-16T01:07:59;97183.13;;;16.85
73265;BMP280;61493;51.008;14.088;2022-08-16T01:10:26;97186.88;;;16.67
73265;BMP280;61493;51.008;14.088;2022-08-16T01:12:52;97183.41;;;16.55
73265;BMP280;61493;51.008;14.088;2022-08-16T01:15:17;97183.28;;;16.44
73265;BMP280;61493;51.008;14.088;2022-08-16T01:17:43;97184.66;;;16.34
73265;BMP280;61493;51.008;14.088;2022-08-16T01:20:12;97186.50;;;16.48
73265;BMP280;61493;51.008;14.088;2022-08-16T01:23:10;97188.38;;;16.42
73265;BMP280;61493;51.008;14.088;2022-08-16T01:25:43;97196.53;;;16.28
73265;BMP280;61493;51.008;14.088;2022-08-16T01:28:16;97185.81;;;16.28
73265;BMP280;61493;51.008;14.088;2022-08-16T01:30:45;97182.88;;;16.31
73265;BMP280;61493;51.008;14.088;2022-08-16T01:33:12;97185.06;;;16.27
73265;BMP280;61493;51.008;14.088;2022-08-16T01:35:42;97188.75;;;16.30
73265;BMP280;61493;51.008;14.088;2022-08-16T01:38:27;97184.72;;;16.19
73265;BMP280;61493;51.008;14.088;2022-08-16T01:40:58;97198.63;;;16.18
73265;BMP280;61493;51.008;14.088;2022-08-16T01:43:24;97189.25;;;16.08
73265;BMP280;61493;51.008;14.088;2022-08-16T01:45:54;97194.09;;;16.04
73265;BMP280;61493;51.008;14.088;2022-08-16T01:48:20;97191.81;;;15.97
73265;BMP280;61493;51.008;14.088;2022-08-16T01:50:48;97196.84;;;15.89
73265;BMP280;61493;51.008;14.088;2022-08-16T01:53:14;97200.44;;;15.80
73265;BMP280;61493;51.008;14.088;2022-08-16T01:55:39;97195.44;;;15.73
73265;BMP280;61493;51.008;14.088;2022-08-16T01:58:06;97184.38;;;15.66
73265;BMP280;61493;51.008;14.088;2022-08-16T02:00:32;97195.00;;;15.75
73265;BMP280;61493;51.008;14.088;2022-08-16T02:02:58;97187.69;;;15.75
73265;BMP280;61493;51.008;14.088;2022-08-16T02:05:23;97202.63;;;15.82
73265;BMP280;61493;51.008;14.088;2022-08-16T02:07:50;97195.22;;;15.77
73265;BMP280;61493;51.008;14.088;2022-08-16T02:10:15;97193.06;;;15.75
73265;BMP280;61493;51.008;14.088;2022-08-16T02:12:41;97190.53;;;15.72
73265;BMP280;61493;51.008;14.088;2022-08-16T02:15:07;97195.00;;;15.75
73265;BMP280;61493;51.008;14.088;2022-08-16T02:17:33;97203.84;;;15.81
73265;BMP280;61493;51.008;14.088;2022-08-16T02:19:58;97198.91;;;15.79
73265;BMP280;61493;51.008;14.088;2022-08-16T02:22:24;97215.69;;;15.95
73265;BMP280;61493;51.008;14.088;2022-08-16T02:24:50;97207.44;;;15.98
73265;BMP280;61493;51.008;14.088;2022-08-16T02:27:15;97207.72;;;16.00
73265;BMP280;61493;51.008;14.088;2022-08-16T02:29:41;97201.19;;;16.07
73265;BMP280;61493;51.008;14.088;2022-08-16T02:32:14;97210.03;;;16.13
73265;BMP280;61493;51.008;14.088;2022-08-16T02:34:40;97204.47;;;16.16
73265;BMP280;61493;51.008;14.088;2022-08-16T02:37:05;97203.00;;;16.15
73265;BMP280;61493;51.008;14.088;2022-08-16T02:39:31;97209.56;;;16.14
73265;BMP280;61493;51.008;14.088;2022-08-16T02:41:56;97204.75;;;16.18
73265;BMP280;61493;51.008;14.088;2022-08-16T02:44:22;97211.00;;;16.10
73265;BMP280;61493;51.008;14.088;2022-08-16T02:46:48;97224.06;;;16.02
73265;BMP280;61493;51.008;14.088;2022-08-16T02:49:14;97216.50;;;16.01
73265;BMP280;61493;51.008;14.088;2022-08-16T02:51:41;97221.78;;;15.95
73265;BMP280;61493;51.008;14.088;2022-08-16T02:54:07;97216.69;;;15.77
73265;BMP280;61493;51.008;14.088;2022-08-16T02:56:32;97222.19;;;15.68
73265;BMP280;61493;51.008;14.088;2022-08-16T02:58:58;97220.38;;;15.59
73265;BMP280;61493;51.008;14.088;2022-08-16T03:01:26;97217.56;;;15.48
73265;BMP280;61493;51.008;14.088;2022-08-16T03:03:53;97225.25;;;15.61
73265;BMP280;61493;51.008;14.088;2022-08-16T03:06:20;97212.91;;;15.48
73265;BMP280;61493;51.008;14.088;2022-08-16T03:08:49;97225.50;;;15.42
73265;BMP280;61493;51.008;14.088;2022-08-16T03:11:15;97221.28;;;15.36
73265;BMP280;61493;51.008;14.088;2022-08-16T03:13:42;97227.78;;;15.49
73265;BMP280;61493;51.008;14.088;2022-08-16T03:16:07;97223.06;;;15.59
73265;BMP280;61493;51.008;14.088;2022-08-16T03:18:32;97231.66;;;15.48
73265;BMP280;61493;51.008;14.088;2022-08-16T03:20:58;97231.34;;;15.41
73265;BMP280;61493;51.008;14.088;2022-08-16T03:23:25;97232.16;;;15.32
73265;BMP280;61493;51.008;14.088;2022-08-16T03:25:50;97221.34;;;15.27
73265;BMP280;61493;51.008;14.088;2022-08-16T03:28:16;97227.22;;;15.25
73265;BMP280;61493;51.008;14.088;2022-08-16T03:30:41;97232.91;;;15.33
73265;BMP280;61493;51.008;14.088;2022-08-16T03:33:07;97232.66;;;15.31
73265;BMP280;61493;51.008;14.088;2022-08-16T03:35:33;97230.88;;;15.28
73265;BMP280;61493;51.008;14.088;2022-08-16T03:38:03;97230.06;;;15.21
73265;BMP280;61493;51.008;14.088;2022-08-16T03:40:32;97228.19;;;15.28
73265;BMP280;61493;51.008;14.088;2022-08-16T03:42:57;97243.28;;;15.25
73265;BMP280;61493;51.008;14.088;2022-08-16T03:45:23;97240.13;;;15.27
73265;BMP280;61493;51.008;14.088;2022-08-16T03:47:50;97241.91;;;15.30
73265;BMP280;61493;51.008;14.088;2022-08-16T03:50:15;97243.75;;;15.23
73265;BMP280;61493;51.008;14.088;2022-08-16T03:52:41;97242.56;;;15.24
73265;BMP280;61493;51.008;14.088;2022-08-16T03:55:08;97244.75;;;15.26
73265;BMP280;61493;51.008;14.088;2022-08-16T03:57:34;97237.44;;;15.41
73265;BMP280;61493;51.008;14.088;2022-08-16T04:00:00;97236.88;;;15.37
73265;BMP280;61493;51.008;14.088;2022-08-16T04:02:26;97234.19;;;15.37
73265;BMP280;61493;51.008;14.088;2022-08-16T04:04:52;97236.22;;;15.42
73265;BMP280;61493;51.008;14.088;2022-08-16T04:07:18;97246.53;;;15.49
73265;BMP280;61493;51.008;14.088;2022-08-16T04:09:44;97245.56;;;15.67
73265;BMP280;61493;51.008;14.088;2022-08-16T04:12:11;97263.09;;;15.63
73265;BMP280;61493;51.008;14.088;2022-08-16T04:14:36;97253.53;;;15.62
73265;BMP280;61493;51.008;14.088;2022-08-16T04:17:03;97259.44;;;15.66
73265;BMP280;61493;51.008;14.088;2022-08-16T04:19:29;97271.25;;;15.74
73265;BMP280;61493;51.008;14.088;2022-08-16T04:21:54;97277.47;;;15.80
73265;BMP280;61493;51.008;14.088;2022-08-16T04:24:20;97280.16;;;15.80
73265;BMP280;61493;51.008;14.088;2022-08-16T04:26:45;97279.16;;;15.98
73265;BMP280;61493;51.008;14.088;2022-08-16T04:29:11;97284.31;;;16.01
73265;BMP280;61493;51.008;14.088;2022-08-16T04:31:36;97288.59;;;16.13
73265;BMP280;61493;51.008;14.088;2022-08-16T04:34:02;97280.34;;;16.17
73265;BMP280;61493;51.008;14.088;2022-08-16T04:36:28;97287.06;;;16.27
73265;BMP280;61493;51.008;14.088;2022-08-16T04:38:54;97287.41;;;16.35
73265;BMP280;61493;51.008;14.088;2022-08-16T04:41:20;97287.44;;;16.61
73265;BMP280;61493;51.008;14.088;2022-08-16T04:43:46;97289.16;;;16.64
73265;BMP280;61493;51.008;14.088;2022-08-16T04:46:11;97298.53;;;16.74
73265;BMP280;61493;51.008;14.088;2022-08-16T04:48:39;97291.47;;;16.76
73265;BMP280;61493;51.008;14.088;2022-08-16T04:51:05;97305.78;;;16.94
73265;BMP280;61493;51.008;14.088;2022-08-16T04:53:30;97309.03;;;17.03
73265;BMP280;61493;51.008;14.088;2022-08-16T04:55:56;97314.34;;;17.18
73265;BMP280;61493;51.008;14.088;2022-08-16T04:58:22;97308.38;;;17.45
73265;BMP280;61493;51.008;14.088;2022-08-16T05:00:47;97312.13;;;17.96
73265;BMP280;61493;51.008;14.088;2022-08-16T05:03:12;97308.41;;;18.75
73265;BMP280;61493;51.008;14.088;2022-08-16T05:05:41;97309.31;;;19.73
73265;BMP280;61493;51.008;14.088;2022-08-16T05:08:07;97307.94;;;20.07
73265;BMP280;61493;51.008;14.088;2022-08-16T05:10:36;97306.16;;;20.62
73265;BMP280;61493;51.008;14.088;2022-08-16T05:13:03;97313.38;;;21.14
73265;BMP280;61493;51.008;14.088;2022-08-16T05:15:29;97311.34;;;21.44
73265;BMP280;61493;51.008;14.088;2022-08-16T05:17:55;97312.22;;;21.77
73265;BMP280;61493;51.008;14.088;2022-08-16T05:20:20;97311.88;;;22.04
73265;BMP280;61493;51.008;14.088;2022-08-16T05:22:46;97312.56;;;22.42
73265;BMP280;61493;51.008;14.088;2022-08-16T05:25:12;97312.13;;;23.02
73265;BMP280;61493;51.008;14.088;2022-08-16T05:27:39;97318.81;;;23.41
73265;BMP280;61493;51.008;14.088;2022-08-16T05:30:06;97326.75;;;23.39
73265;BMP280;61493;51.008;14.088;2022-08-16T05:32:35;97321.03;;;23.89
73265;BMP280;61493;51.008;14.088;2022-08-16T05:35:01;97326.81;;;23.86
73265;BMP280;61493;51.008;14.088;2022-08-16T05:37:27;97328.16;;;24.68
73265;BMP280;61493;51.008;14.088;2022-08-16T05:39:52;97333.19;;;24.64
73265;BMP280;61493;51.008;14.088;2022-08-16T05:42:18;97334.69;;;24.10
73265;BMP280;61493;51.008;14.088;2022-08-16T05:44:43;97337.47;;;23.84
73265;BMP280;61493;51.008;14.088;2022-08-16T05:47:08;97327.81;;;24.92
73265;BMP280;61493;51.008;14.088;2022-08-16T05:49:34;97332.56;;;24.71
73265;BMP280;61493;51.008;14.088;2022-08-16T05:51:59;97332.78;;;24.81
73265;BMP280;61493;51.008;14.088;2022-08-16T05:54:26;97337.63;;;25.24
73265;BMP280;61493;51.008;14.088;2022-08-16T05:56:53;97336.09;;;25.43
73265;BMP280;61493;51.008;14.088;2022-08-16T05:59:18;97327.28;;;25.22
73265;BMP280;61493;51.008;14.088;2022-08-16T06:01:44;97335.16;;;25.77
73265;BMP280;61493;51.008;14.088;2022-08-16T06:04:11;97339.56;;;25.88
73265;BMP280;61493;51.008;14.088;2022-08-16T06:06:37;97344.03;;;26.29
73265;BMP280;61493;51.008;14.088;2022-08-16T06:09:03;97346.63;;;26.65
73265;BMP280;61493;51.008;14.088;2022-08-16T06:11:28;97348.59;;;26.72
73265;BMP280;61493;51.008;14.088;2022-08-16T06:13:53;97345.13;;;26.86
73265;BMP280;61493;51.008;14.088;2022-08-16T06:16:19;97339.50;;;27.87
73265;BMP280;61493;51.008;14.088;2022-08-16T06:18:44;97347.53;;;28.42
73265;BMP280;61493;51.008;14.088;2022-08-16T06:21:11;97342.31;;;28.29
73265;BMP280;61493;51.008;14.088;2022-08-16T06:23:37;97342.59;;;28.24
73265;BMP280;61493;51.008;14.088;2022-08-16T06:26:03;97341.06;;;28.72
73265;BMP280;61493;51.008;14.088;2022-08-16T06:28:29;97346.69;;;29.60
73265;BMP280;61493;51.008;14.088;2022-08-16T06:30:55;97339.09;;;30.51
73265;BMP280;61493;51.008;14.088;2022-08-16T06:33:20;97336.50;;;30.62
73265;BMP280;61493;51.008;14.088;2022-08-16T06:35:45;97339.00;;;31.07
73265;BMP280;61493;51.008;14.088;2022-08-16T06:38:11;97340.53;;;30.52
73265;BMP280;61493;51.008;14.088;2022-08-16T06:40:37;97347.34;;;31.37
73265;BMP280;61493;51.008;14.088;2022-08-16T06:43:03;97355.91;;;31.13
73265;BMP280;61493;51.008;14.088;2022-08-16T06:45:28;97345.44;;;31.30
73265;BMP280;61493;51.008;14.088;2022-08-16T06:47:53;97345.13;;;31.55
73265;BMP280;61493;51.008;14.088;2022-08-16T06:50:18;97353.81;;;31.61
73265;BMP280;61493;51.008;14.088;2022-08-16T06:52:45;97356.06;;;31.74
73265;BMP280;61493;51.008;14.088;2022-08-16T06:55:11;97358.44;;;31.49
73265;BMP280;61493;51.008;14.088;2022-08-16T06:57:37;97359.53;;;31.65
73265;BMP280;61493;51.008;14.088;2022-08-16T07:00:05;97364.59;;;32.09
73265;BMP280;61493;51.008;14.088;2022-08-16T07:02:41;97367.81;;;32.37
73265;BMP280;61493;51.008;14.088;2022-08-16T07:05:08;97372.69;;;33.02
73265;BMP280;61493;51.008;14.088;2022-08-16T07:07:34;97361.38;;;32.86
73265;BMP280;61493;51.008;14.088;2022-08-16T07:09:59;97373.53;;;31.29
73265;BMP280;61493;51.008;14.088;2022-08-16T07:12:25;97368.56;;;31.56
73265;BMP280;61493;51.008;14.088;2022-08-16T07:14:50;97370.66;;;31.86
73265;BMP280;61493;51.008;14.088;2022-08-16T07:17:16;97368.06;;;32.83
73265;BMP280;61493;51.008;14.088;2022-08-16T07:19:47;97375.75;;;33.85
73265;BMP280;61493;51.008;14.088;2022-08-16T07:22:16;97379.69;;;34.29
73265;BMP280;61493;51.008;14.088;2022-08-16T07:24:42;97370.91;;;34.21
73265;BMP280;61493;51.008;14.088;2022-08-16T07:27:11;97377.47;;;34.50
73265;BMP280;61493;51.008;14.088;2022-08-16T07:29:37;97371.28;;;35.39
73265;BMP280;61493;51.008;14.088;2022-08-16T07:32:04;97370.16;;;35.06
73265;BMP280;61493;51.008;14.088;2022-08-16T07:34:30;97374.75;;;34.16
73265;BMP280;61493;51.008;14.088;2022-08-16T07:36:58;97387.34;;;35.04
73265;BMP280;61493;51.008;14.088;2022-08-16T07:39:24;97391.41;;;35.15
73265;BMP280;61493;51.008;14.088;2022-08-16T07:41:50;97389.88;;;34.75
73265;BMP280;61493;51.008;14.088;2022-08-16T07:44:15;97398.94;;;35.39
73265;BMP280;61493;51.008;14.088;2022-08-16T07:46:40;97412.31;;;35.70
73265;BMP280;61493;51.008;14.088;2022-08-16T07:49:06;97399.13;;;35.82
73265;BMP280;61493;51.008;14.088;2022-08-16T07:51:32;97407.31;;;35.67
73265;BMP280;61493;51.008;14.088;2022-08-16T07:54:01;97401.06;;;35.27
73265;BMP280;61493;51.008;14.088;2022-08-16T07:56:30;97415.41;;;35.76
73265;BMP280;61493;51.008;14.088;2022-08-16T07:58:55;97414.84;;;36.91
73265;BMP280;61493;51.008;14.088;2022-08-16T08:01:21;97404.34;;;35.76
73265;BMP280;61493;51.008;14.088;2022-08-16T08:03:50;97409.91;;;37.66
73265;BMP280;61493;51.008;14.088;2022-08-16T08:06:17;97410.25;;;37.74
73265;BMP280;61493;51.008;14.088;2022-08-16T08:08:43;97410.44;;;37.62
73265;BMP280;61493;51.008;14.088;2022-08-16T08:11:08;97404.88;;;37.15
73265;BMP280;61493;51.008;14.088;2022-08-16T08:13:34;97412.47;;;36.85
73265;BMP280;61493;51.008;14.088;2022-08-16T08:15:59;97418.84;;;37.33
73265;BMP280;61493;51.008;14.088;2022-08-16T08:18:25;97423.06;;;37.81
73265;BMP280;61493;51.008;14.088;2022-08-16T08:20:50;97426.16;;;38.05
73265;BMP280;61493;51.008;14.088;2022-08-16T08:23:16;97422.78;;;38.42
73265;BMP280;61493;51.008;14.088;2022-08-16T08:25:43;97428.53;;;39.75
73265;BMP280;61493;51.008;14.088;2022-08-16T08:28:10;97422.47;;;39.61
73265;BMP280;61493;51.008;14.088;2022-08-16T08:30:35;97426.13;;;38.20
73265;BMP280;61493;51.008;14.088;2022-08-16T08:33:00;97426.88;;;38.39
73265;BMP280;61493;51.008;14.088;2022-08-16T08:35:26;97422.56;;;38.36
73265;BMP280;61493;51.008;14.088;2022-08-16T08:37:52;97427.88;;;38.47
73265;BMP280;61493;51.008;14.088;2022-08-16T08:40:18;97431.78;;;38.58
73265;BMP280;61493;51.008;14.088;2022-08-16T08:42:44;97432.19;;;40.43
73265;BMP280;61493;51.008;14.088;2022-08-16T08:45:11;97427.31;;;41.13
73265;BMP280;61493;51.008;14.088;2022-08-16T08:47:42;97433.09;;;41.45
73265;BMP280;61493;51.008;14.088;2022-08-16T08:50:07;97431.66;;;40.27
73265;BMP280;61493;51.008;14.088;2022-08-16T08:52:33;97430.53;;;40.58
73265;BMP280;61493;51.008;14.088;2022-08-16T08:54:58;97436.13;;;39.95
73265;BMP280;61493;51.008;14.088;2022-08-16T08:57:24;97426.59;;;42.17
73265;BMP280;61493;51.008;14.088;2022-08-16T08:59:49;97434.97;;;42.17
73265;BMP280;61493;51.008;14.088;2022-08-16T09:02:16;97427.28;;;43.13
73265;BMP280;61493;51.008;14.088;2022-08-16T09:04:44;97426.53;;;43.09
73265;BMP280;61493;51.008;14.088;2022-08-16T09:07:10;97432.50;;;42.31
73265;BMP280;61493;51.008;14.088;2022-08-16T09:09:35;97422.66;;;42.28
73265;BMP280;61493;51.008;14.088;2022-08-16T09:12:01;97424.06;;;43.27
73265;BMP280;61493;51.008;14.088;2022-08-16T09:14:27;97429.28;;;43.84
73265;BMP280;61493;51.008;14.088;2022-08-16T09:16:53;97427.81;;;43.79
73265;BMP280;61493;51.008;14.088;2022-08-16T09:19:22;97426.16;;;43.26
73265;BMP280;61493;51.008;14.088;2022-08-16T09:21:48;97430.19;;;43.55
73265;BMP280;61493;51.008;14.088;2022-08-16T09:24:16;97432.94;;;41.92
73265;BMP280;61493;51.008;14.088;2022-08-16T09:26:41;97429.56;;;42.87
73265;BMP280;61493;51.008;14.088;2022-08-16T09:29:07;97434.03;;;42.68
73265;BMP280;61493;51.008;14.088;2022-08-16T09:31:32;97432.97;;;39.63
73265;BMP280;61493;51.008;14.088;2022-08-16T09:33:57;97428.94;;;38.91
73265;BMP280;61493;51.008;14.088;2022-08-16T09:36:23;97428.97;;;39.88
73265;BMP280;61493;51.008;14.088;2022-08-16T09:38:48;97431.84;;;41.26
73265;BMP280;61493;51.008;14.088;2022-08-16T09:41:14;97423.56;;;40.35
73265;BMP280;61493;51.008;14.088;2022-08-16T09:43:40;97421.19;;;39.64
73265;BMP280;61493;51.008;14.088;2022-08-16T09:46:06;97425.06;;;39.75
73265;BMP280;61493;51.008;14.088;2022-08-16T09:48:33;97415.47;;;38.15
73265;BMP280;61493;51.008;14.088;2022-08-16T09:50:59;97417.97;;;36.70
73265;BMP280;61493;51.008;14.088;2022-08-16T09:53:24;97418.16;;;36.45
73265;BMP280;61493;51.008;14.088;2022-08-16T09:55:53;97411.09;;;38.27
73265;BMP280;61493;51.008;14.088;2022-08-16T09:58:22;97404.13;;;40.15
73265;BMP280;61493;51.008;14.088;2022-08-16T10:00:49;97413.53;;;41.98
73265;BMP280;61493;51.008;14.088;2022-08-16T10:03:15;97408.03;;;43.69
73265;BMP280;61493;51.008;14.088;2022-08-16T10:05:40;97418.78;;;40.83
73265;BMP280;61493;51.008;14.088;2022-08-16T10:08:06;97409.13;;;39.58
73265;BMP280;61493;51.008;14.088;2022-08-16T10:10:32;97411.31;;;38.32
73265;BMP280;61493;51.008;14.088;2022-08-16T10:12:58;97416.66;;;37.94
73265;BMP280;61493;51.008;14.088;2022-08-16T10:15:37;97411.47;;;39.26
73265;BMP280;61493;51.008;14.088;2022-08-16T10:18:04;97402.03;;;39.94
73265;BMP280;61493;51.008;14.088;2022-08-16T10:20:34;97411.78;;;39.73
73265;BMP280;61493;51.008;14.088;2022-08-16T10:23:02;97408.28;;;40.14
73265;BMP280;61493;51.008;14.088;2022-08-16T10:25:28;97407.50;;;40.33
73265;BMP280;61493;51.008;14.088;2022-08-16T10:27:53;97401.41;;;40.17
73265;BMP280;61493;51.008;14.088;2022-08-16T10:30:19;97392.91;;;41.81
73265;BMP280;61493;51.008;14.088;2022-08-16T10:32:44;97392.03;;;42.98
73265;BMP280;61493;51.008;14.088;2022-08-16T10:35:10;97404.03;;;41.54
73265;BMP280;61493;51.008;14.088;2022-08-16T10:37:35;97404.66;;;41.78
73265;BMP280;61493;51.008;14.088;2022-08-16T10:40:00;97402.38;;;41.45
73265;BMP280;61493;51.008;14.088;2022-08-16T10:42:26;97399.31;;;40.61
73265;BMP280;61493;51.008;14.088;2022-08-16T10:44:52;97406.63;;;40.29
73265;BMP280;61493;51.008;14.088;2022-08-16T10:47:17;97407.19;;;39.62
73265;BMP280;61493;51.008;14.088;2022-08-16T10:49:42;97407.78;;;40.00
73265;BMP280;61493;51.008;14.088;2022-08-16T10:52:07;97413.47;;;36.06
73265;BMP280;61493;51.008;14.088;2022-08-16T10:54:33;97408.81;;;35.56
73265;BMP280;61493;51.008;14.088;2022-08-16T10:57:01;97404.16;;;37.62
73265;BMP280;61493;51.008;14.088;2022-08-16T10:59:28;97405.56;;;36.14
73265;BMP280;61493;51.008;14.088;2022-08-16T11:01:55;97404.56;;;36.21
73265;BMP280;61493;51.008;14.088;2022-08-16T11:04:21;97398.63;;;38.11
73265;BMP280;61493;51.008;14.088;2022-08-16T11:06:46;97396.06;;;38.50
73265;BMP280;61493;51.008;14.088;2022-08-16T11:09:12;97397.50;;;38.34
73265;BMP280;61493;51.008;14.088;2022-08-16T11:11:37;97404.50;;;40.06
73265;BMP280;61493;51.008;14.088;2022-08-16T11:14:02;97393.84;;;41.39
73265;BMP280;61493;51.008;14.088;2022-08-16T11:16:28;97401.66;;;42.27
73265;BMP280;61493;51.008;14.088;2022-08-16T11:18:56;97404.50;;;41.20
73265;BMP280;61493;51.008;14.088;2022-08-16T11:21:21;97405.94;;;42.62
73265;BMP280;61493;51.008;14.088;2022-08-16T11:23:49;97395.63;;;42.07
73265;BMP280;61493;51.008;14.088;2022-08-16T11:26:15;97401.88;;;40.77
73265;BMP280;61493;51.008;14.088;2022-08-16T11:28:40;97409.41;;;38.89
73265;BMP280;61493;51.008;14.088;2022-08-16T11:31:06;97405.72;;;39.40
73265;BMP280;61493;51.008;14.088;2022-08-16T11:33:31;97413.19;;;40.16
73265;BMP280;61493;51.008;14.088;2022-08-16T11:35:56;97397.53;;;40.72
73265;BMP280;61493;51.008;14.088;2022-08-16T11:38:22;97395.13;;;41.87
73265;BMP280;61493;51.008;14.088;2022-08-16T11:40:56;97401.16;;;41.00
73265;BMP280;61493;51.008;14.088;2022-08-16T11:43:31;97398.50;;;41.56
73265;BMP280;61493;51.008;14.088;2022-08-16T11:45:59;97383.88;;;42.42
73265;BMP280;61493;51.008;14.088;2022-08-16T11:48:26;97392.91;;;39.13
73265;BMP280;61493;51.008;14.088;2022-08-16T11:50:53;97382.34;;;37.23
73265;BMP280;61493;51.008;14.088;2022-08-16T11:53:19;97390.19;;;38.42
73265;BMP280;61493;51.008;14.088;2022-08-16T11:55:46;97390.28;;;38.44
73265;BMP280;61493;51.008;14.088;2022-08-16T11:58:12;97381.34;;;38.30
73265;BMP280;61493;51.008;14.088;2022-08-16T12:00:40;97375.72;;;38.81
73265;BMP280;61493;51.008;14.088;2022-08-16T12:03:06;97388.78;;;37.12
73265;BMP280;61493;51.008;14.088;2022-08-16T12:05:32;97382.81;;;36.59
73265;BMP280;61493;51.008;14.088;2022-08-16T12:07:57;97377.78;;;35.85
73265;BMP280;61493;51.008;14.088;2022-08-16T12:10:24;97366.41;;;33.90
73265;BMP280;61493;51.008;14.088;2022-08-16T12:12:50;97368.22;;;33.30
73265;BMP280;61493;51.008;14.088;2022-08-16T12:15:17;97375.22;;;32.98
73265;BMP280;61493;51.008;14.088;2022-08-16T12:17:43;97371.03;;;32.75
73265;BMP280;61493;51.008;14.088;2022-08-16T12:20:15;97376.34;;;33.16
73265;BMP280;61493;51.008;14.088;2022-08-16T12:25:16;97370.34;;;33.99
73265;BMP280;61493;51.008;14.088;2022-08-16T12:27:43;97373.91;;;33.43
73265;BMP280;61493;51.008;14.088;2022-08-16T12:30:10;97368.03;;;33.37
73265;BMP280;61493;51.008;14.088;2022-08-16T12:32:36;97366.03;;;33.73
73265;BMP280;61493;51.008;14.088;2022-08-16T12:35:01;97364.22;;;33.89
73265;BMP280;61493;51.008;14.088;2022-08-16T12:37:28;97364.91;;;34.24
73265;BMP280;61493;51.008;14.088;2022-08-16T12:39:54;97362.47;;;33.93
73265;BMP280;61493;51.008;14.088;2022-08-16T12:42:21;97360.25;;;33.92
73265;BMP280;61493;51.008;14.088;2022-08-16T12:44:48;97356.28;;;33.48
73265;BMP280;61493;51.008;14.088;2022-08-16T12:47:14;97356.56;;;33.08
73265;BMP280;61493;51.008;14.088;2022-08-16T12:49:59;97354.88;;;32.39
73265;BMP280;61493;51.008;14.088;2022-08-16T12:52:24;97356.25;;;31.57
73265;BMP280;61493;51.008;14.088;2022-08-16T12:54:49;97355.00;;;30.52
73265;BMP280;61493;51.008;14.088;2022-08-16T12:57:14;97360.56;;;29.99
73265;BMP280;61493;51.008;14.088;2022-08-16T12:59:40;97346.56;;;29.95
73265;BMP280;61493;51.008;14.088;2022-08-16T13:02:07;97359.75;;;30.61
73265;BMP280;61493;51.008;14.088;2022-08-16T13:04:33;97365.13;;;30.79
73265;BMP280;61493;51.008;14.088;2022-08-16T13:07:00;97348.81;;;31.29
73265;BMP280;61493;51.008;14.088;2022-08-16T13:09:25;97351.06;;;31.52
73265;BMP280;61493;51.008;14.088;2022-08-16T13:12:05;97356.19;;;30.97
73265;BMP280;61493;51.008;14.088;2022-08-16T13:14:41;97353.81;;;30.46
73265;BMP280;61493;51.008;14.088;2022-08-16T13:17:13;97350.81;;;30.61
73265;BMP280;61493;51.008;14.088;2022-08-16T13:19:39;97344.94;;;30.93
73265;BMP280;61493;51.008;14.088;2022-08-16T13:22:04;97348.97;;;30.92
73265;BMP280;61493;51.008;14.088;2022-08-16T13:24:30;97351.97;;;30.96
73265;BMP280;61493;51.008;14.088;2022-08-16T13:26:56;97345.91;;;31.27
73265;BMP280;61493;51.008;14.088;2022-08-16T13:29:21;97341.28;;;30.91
73265;BMP280;61493;51.008;14.088;2022-08-16T13:31:46;97347.38;;;30.99
73265;BMP280;61493;51.008;14.088;2022-08-16T13:34:12;97349.09;;;30.85
73265;BMP280;61493;51.008;14.088;2022-08-16T13:36:37;97341.16;;;30.98
73265;BMP280;61493;51.008;14.088;2022-08-16T13:39:03;97341.28;;;31.00
73265;BMP280;61493;51.008;14.088;2022-08-16T13:41:28;97346.19;;;30.63
73265;BMP280;61493;51.008;14.088;2022-08-16T13:43:54;97338.25;;;30.02
73265;BMP280;61493;51.008;14.088;2022-08-16T13:46:19;97342.94;;;29.92
73265;BMP280;61493;51.008;14.088;2022-08-16T13:48:44;97330.06;;;30.21
73265;BMP280;61493;51.008;14.088;2022-08-16T13:51:16;97339.53;;;30.57
73265;BMP280;61493;51.008;14.088;2022-08-16T13:53:43;97340.41;;;30.69
73265;BMP280;61493;51.008;14.088;2022-08-16T13:56:08;97335.78;;;30.52
73265;BMP280;61493;51.008;14.088;2022-08-16T13:58:33;97338.25;;;30.77